Huntsville International Carl T Jones Field
KHSV : now visible

Airfield :











YOU CAN JOIN US ON...

 
LOGIN :

Register | Disclaimer

   EN    FR    IT 

 









Legend :    VFR   Marginal VFR   IFR   Intensive IFR   Very Intensive IFR
Visi :
Ceiling :
>= 8 km
>= 3000ft
5 to 8 km
1000 to 3000 ft
1500m to 5 km
500 to 1000 ft
800 to 1500m
200 to 500 ft
< 800m
< 200 ft
Symbols :   Thunderstorms  Fog  Heavy snow  Heavy precipitations  Wind > 20 kt






- Airport Elevation : 629 ft
- IATA code : HSV


KHSV - Huntsville International Carl T Jones Field

CURRENT METAR :
  • 190753Z AUTO 16004KT 10SM CLR 22/21 A3001 RMK AO2 SLP153 T02220206

EXPIRED METARs :
  • 190653Z AUTO 16003KT 10SM CLR 23/21 A3004 RMK AO2 SLP163 T02280206

TAF KHSV
Valid from the 19 at 06:00 until the 20 at 06:00 UTC


190520Z 1906/2006 VRB04KT P6SM OVC250
FM191500 15010G17KT P6SM OVC030
FM191800 14012G19KT P6SM OVC025
PROB30 1919/1924 4SM -SHRA BR OVC012
FM200000 12012G19KT P6SM OVC015
PROB30 2000/2006 3SM SHRA BR OVC010
KZME FIR / North America



MET'MAP, your aeronautical weather chart ! - Copyright ORBIFLY December 2007 - Disclaimer

ORBIFLY MET'MAP TEAM :

Programming & Development : Alexandra Zaïnal
Concept & original design : Baudouin d'Aumeries
Assistance for programming : Marc-Olivier Méhu
Technical & hardware support : Manuel Goepfert

Contact : metmap@orbifly.com




SOURCES & CREDITS :

   NOAA       Earth
Advisory